sensor_id;sensor_type;location;lat;lon;timestamp;pressure;altitude;pressure_sealevel;temperature;humidity
39699;BME280;25372;50.582;12.250;2024-01-25T00:08:12;100072.44;;;5.94;78.65
39699;BME280;25372;50.582;12.250;2024-01-25T00:18:34;100086.50;;;5.90;77.76
39699;BME280;25372;50.582;12.250;2024-01-25T00:28:56;100090.00;;;5.88;78.58
39699;BME280;25372;50.582;12.250;2024-01-25T00:39:18;100098.38;;;5.74;78.51
39699;BME280;25372;50.582;12.250;2024-01-25T00:49:40;100121.38;;;5.87;77.54
39699;BME280;25372;50.582;12.250;2024-01-25T01:00:03;100133.97;;;5.98;77.11
39699;BME280;25372;50.582;12.250;2024-01-25T01:10:25;100128.47;;;6.06;76.12
39699;BME280;25372;50.582;12.250;2024-01-25T01:20:48;100134.56;;;6.06;76.87
39699;BME280;25372;50.582;12.250;2024-01-25T01:31:09;100155.41;;;6.06;76.11
39699;BME280;25372;50.582;12.250;2024-01-25T01:41:31;100157.44;;;5.98;76.94
39699;BME280;25372;50.582;12.250;2024-01-25T01:51:52;100147.78;;;6.00;76.79
39699;BME280;25372;50.582;12.250;2024-01-25T02:02:15;100160.81;;;6.00;76.11
39699;BME280;25372;50.582;12.250;2024-01-25T02:12:36;100157.25;;;6.04;75.56
39699;BME280;25372;50.582;12.250;2024-01-25T02:23:00;100139.38;;;5.93;77.07
39699;BME280;25372;50.582;12.250;2024-01-25T02:33:21;100153.25;;;5.94;76.04
39699;BME280;25372;50.582;12.250;2024-01-25T02:43:43;100150.75;;;5.91;76.70
39699;BME280;25372;50.582;12.250;2024-01-25T02:54:04;100167.38;;;5.88;76.02
39699;BME280;25372;50.582;12.250;2024-01-25T03:04:27;100177.19;;;5.81;77.09
39699;BME280;25372;50.582;12.250;2024-01-25T03:14:48;100192.53;;;5.89;75.90
39699;BME280;25372;50.582;12.250;2024-01-25T03:25:11;100210.00;;;5.87;75.80
39699;BME280;25372;50.582;12.250;2024-01-25T03:35:32;100207.50;;;5.84;75.21
39699;BME280;25372;50.582;12.250;2024-01-25T03:45:54;100214.69;;;5.77;74.71
39699;BME280;25372;50.582;12.250;2024-01-25T03:56:15;100210.28;;;5.79;74.77
39699;BME280;25372;50.582;12.250;2024-01-25T04:06:41;100191.31;;;5.76;75.01
39699;BME280;25372;50.582;12.250;2024-01-25T04:17:02;100191.41;;;5.72;75.38
39699;BME280;25372;50.582;12.250;2024-01-25T04:27:25;100209.00;;;5.67;76.28
39699;BME280;25372;50.582;12.250;2024-01-25T04:37:46;100218.06;;;5.57;76.46
39699;BME280;25372;50.582;12.250;2024-01-25T04:48:09;100219.34;;;5.45;77.34
39699;BME280;25372;50.582;12.250;2024-01-25T04:58:30;100231.13;;;5.55;76.22
39699;BME280;25372;50.582;12.250;2024-01-25T05:08:52;100237.03;;;5.60;76.13
39699;BME280;25372;50.582;12.250;2024-01-25T05:19:14;100236.41;;;5.54;76.15
39699;BME280;25372;50.582;12.250;2024-01-25T05:29:36;100246.88;;;5.52;75.83
39699;BME280;25372;50.582;12.250;2024-01-25T05:39:57;100287.53;;;5.56;75.45
39699;BME280;25372;50.582;12.250;2024-01-25T05:50:19;100281.41;;;5.57;74.92
39699;BME280;25372;50.582;12.250;2024-01-25T06:00:42;100295.47;;;5.53;75.84
39699;BME280;25372;50.582;12.250;2024-01-25T06:11:04;100323.09;;;5.57;74.94
39699;BME280;25372;50.582;12.250;2024-01-25T06:21:25;100347.97;;;5.42;76.40
39699;BME280;25372;50.582;12.250;2024-01-25T06:31:48;100325.63;;;5.08;77.93
39699;BME280;25372;50.582;12.250;2024-01-25T06:42:09;100348.63;;;5.22;76.75
39699;BME280;25372;50.582;12.250;2024-01-25T06:52:31;100351.22;;;5.22;77.44
39699;BME280;25372;50.582;12.250;2024-01-25T07:02:53;100370.09;;;5.29;76.45
39699;BME280;25372;50.582;12.250;2024-01-25T07:13:16;100393.38;;;5.34;75.87
39699;BME280;25372;50.582;12.250;2024-01-25T07:23:37;100397.69;;;5.35;75.99
39699;BME280;25372;50.582;12.250;2024-01-25T07:34:00;100406.16;;;5.41;75.21
39699;BME280;25372;50.582;12.250;2024-01-25T07:44:21;100417.44;;;5.42;74.88
39699;BME280;25372;50.582;12.250;2024-01-25T07:54:43;100417.03;;;5.54;74.69
39699;BME280;25372;50.582;12.250;2024-01-25T08:05:05;100420.50;;;5.55;75.68
39699;BME280;25372;50.582;12.250;2024-01-25T08:15:28;100424.50;;;5.65;74.58
39699;BME280;25372;50.582;12.250;2024-01-25T08:25:50;100442.59;;;5.70;74.53
39699;BME280;25372;50.582;12.250;2024-01-25T08:36:12;100439.78;;;5.74;74.97
39699;BME280;25372;50.582;12.250;2024-01-25T08:46:34;100457.81;;;5.82;75.42
39699;BME280;25372;50.582;12.250;2024-01-25T08:56:56;100470.09;;;5.79;74.42
39699;BME280;25372;50.582;12.250;2024-01-25T09:07:17;100458.97;;;5.99;74.49
39699;BME280;25372;50.582;12.250;2024-01-25T09:17:39;100479.22;;;6.18;73.73
39699;BME280;25372;50.582;12.250;2024-01-25T09:28:01;100473.06;;;6.20;72.52
39699;BME280;25372;50.582;12.250;2024-01-25T09:38:23;100468.91;;;6.14;74.49
39699;BME280;25372;50.582;12.250;2024-01-25T09:48:44;100489.72;;;6.40;73.94
39699;BME280;25372;50.582;12.250;2024-01-25T09:59:09;100519.56;;;6.82;70.79
39699;BME280;25372;50.582;12.250;2024-01-25T10:09:38;100542.38;;;6.77;71.06
39699;BME280;25372;50.582;12.250;2024-01-25T10:20:04;100540.09;;;6.67;71.54
39699;BME280;25372;50.582;12.250;2024-01-25T10:30:27;100550.69;;;6.63;70.99
39699;BME280;25372;50.582;12.250;2024-01-25T10:40:50;100545.38;;;6.66;72.18
39699;BME280;25372;50.582;12.250;2024-01-25T10:51:11;100532.56;;;6.58;70.25
39699;BME280;25372;50.582;12.250;2024-01-25T11:01:36;100537.66;;;6.87;68.82
39699;BME280;25372;50.582;12.250;2024-01-25T11:11:58;100548.31;;;7.04;68.85
39699;BME280;25372;50.582;12.250;2024-01-25T11:22:21;100527.28;;;7.31;68.17
39699;BME280;25372;50.582;12.250;2024-01-25T11:32:42;100544.44;;;6.92;69.88
39699;BME280;25372;50.582;12.250;2024-01-25T11:43:06;100539.13;;;6.94;68.82
39699;BME280;25372;50.582;12.250;2024-01-25T11:53:30;100540.94;;;6.68;70.97
39699;BME280;25372;50.582;12.250;2024-01-25T12:03:53;100544.47;;;6.67;71.62
39699;BME280;25372;50.582;12.250;2024-01-25T12:14:16;100522.78;;;7.12;71.33
39699;BME280;25372;50.582;12.250;2024-01-25T12:24:40;100530.03;;;7.04;69.38
39699;BME280;25372;50.582;12.250;2024-01-25T12:35:01;100530.69;;;7.33;68.40
39699;BME280;25372;50.582;12.250;2024-01-25T12:45:24;100516.66;;;7.36;69.58
39699;BME280;25372;50.582;12.250;2024-01-25T12:55:45;100514.69;;;7.19;69.48
39699;BME280;25372;50.582;12.250;2024-01-25T13:06:08;100503.25;;;7.21;69.54
39699;BME280;25372;50.582;12.250;2024-01-25T13:16:29;100514.59;;;7.22;70.01
39699;BME280;25372;50.582;12.250;2024-01-25T13:26:51;100526.28;;;7.11;70.24
39699;BME280;25372;50.582;12.250;2024-01-25T13:37:12;100542.94;;;6.85;69.96
39699;BME280;25372;50.582;12.250;2024-01-25T13:47:35;100534.53;;;6.77;70.00
39699;BME280;25372;50.582;12.250;2024-01-25T13:57:56;100552.00;;;6.75;70.63
39699;BME280;25372;50.582;12.250;2024-01-25T14:08:18;100552.59;;;6.83;71.15
39699;BME280;25372;50.582;12.250;2024-01-25T14:18:39;100561.34;;;6.56;70.33
39699;BME280;25372;50.582;12.250;2024-01-25T14:29:02;100567.06;;;6.42;71.67
39699;BME280;25372;50.582;12.250;2024-01-25T14:39:23;100574.59;;;6.25;71.57
39699;BME280;25372;50.582;12.250;2024-01-25T14:49:45;100570.66;;;6.13;71.85
39699;BME280;25372;50.582;12.250;2024-01-25T15:00:07;100572.75;;;6.03;71.82
39699;BME280;25372;50.582;12.250;2024-01-25T15:10:30;100568.63;;;5.67;73.18
39699;BME280;25372;50.582;12.250;2024-01-25T15:20:52;100584.53;;;5.58;73.45
39699;BME280;25372;50.582;12.250;2024-01-25T15:31:16;100597.44;;;5.32;74.59
39699;BME280;25372;50.582;12.250;2024-01-25T15:41:38;100610.22;;;5.42;74.39
39699;BME280;25372;50.582;12.250;2024-01-25T15:52:00;100622.38;;;5.41;73.58
39699;BME280;25372;50.582;12.250;2024-01-25T16:02:21;100632.38;;;5.25;74.13
39699;BME280;25372;50.582;12.250;2024-01-25T16:12:44;100643.66;;;5.26;74.73
39699;BME280;25372;50.582;12.250;2024-01-25T16:23:05;100662.00;;;5.23;73.27
39699;BME280;25372;50.582;12.250;2024-01-25T16:33:27;100680.22;;;5.23;75.05
39699;BME280;25372;50.582;12.250;2024-01-25T16:43:48;100669.13;;;5.16;74.84
39699;BME280;25372;50.582;12.250;2024-01-25T16:54:10;100674.09;;;4.92;76.19
39699;BME280;25372;50.582;12.250;2024-01-25T17:04:31;100675.03;;;4.89;76.12
39699;BME280;25372;50.582;12.250;2024-01-25T17:14:54;100669.84;;;4.55;76.87
39699;BME280;25372;50.582;12.250;2024-01-25T17:25:15;100665.56;;;4.17;78.45
39699;BME280;25372;50.582;12.250;2024-01-25T17:35:38;100682.84;;;3.81;80.10
39699;BME280;25372;50.582;12.250;2024-01-25T17:46:02;100690.56;;;3.84;80.07
39699;BME280;25372;50.582;12.250;2024-01-25T17:56:24;100685.56;;;4.14;79.44
39699;BME280;25372;50.582;12.250;2024-01-25T18:06:45;100681.59;;;4.35;78.20
39699;BME280;25372;50.582;12.250;2024-01-25T18:17:07;100691.38;;;3.87;80.21
39699;BME280;25372;50.582;12.250;2024-01-25T18:27:28;100699.81;;;3.97;80.79
39699;BME280;25372;50.582;12.250;2024-01-25T18:37:51;100700.59;;;4.01;80.80
39699;BME280;25372;50.582;12.250;2024-01-25T18:48:11;100706.38;;;4.14;80.76
39699;BME280;25372;50.582;12.250;2024-01-25T18:58:34;100697.69;;;4.15;80.47
39699;BME280;25372;50.582;12.250;2024-01-25T19:08:56;100691.69;;;4.11;80.81
39699;BME280;25372;50.582;12.250;2024-01-25T19:19:19;100698.38;;;4.23;79.83
39699;BME280;25372;50.582;12.250;2024-01-25T19:29:41;100700.75;;;4.32;79.75
39699;BME280;25372;50.582;12.250;2024-01-25T19:40:03;100703.25;;;4.37;79.80
39699;BME280;25372;50.582;12.250;2024-01-25T19:50:25;100681.09;;;4.20;78.76
39699;BME280;25372;50.582;12.250;2024-01-25T20:00:48;100713.69;;;4.34;78.66
39699;BME280;25372;50.582;12.250;2024-01-25T20:11:09;100705.16;;;4.29;79.44
39699;BME280;25372;50.582;12.250;2024-01-25T20:21:32;100724.19;;;4.31;80.13
39699;BME280;25372;50.582;12.250;2024-01-25T20:31:53;100713.91;;;4.25;80.05
39699;BME280;25372;50.582;12.250;2024-01-25T20:42:15;100707.19;;;4.16;80.69
39699;BME280;25372;50.582;12.250;2024-01-25T20:52:36;100711.50;;;4.17;81.11
39699;BME280;25372;50.582;12.250;2024-01-25T21:02:59;100714.31;;;4.08;81.43
39699;BME280;25372;50.582;12.250;2024-01-25T21:13:21;100725.75;;;4.00;82.04
39699;BME280;25372;50.582;12.250;2024-01-25T21:23:43;100722.34;;;3.97;82.28
39699;BME280;25372;50.582;12.250;2024-01-25T21:34:04;100726.94;;;3.85;81.64
39699;BME280;25372;50.582;12.250;2024-01-25T21:44:26;100730.59;;;3.76;81.73
39699;BME280;25372;50.582;12.250;2024-01-25T21:54:47;100745.28;;;3.77;82.49
39699;BME280;25372;50.582;12.250;2024-01-25T22:05:10;100733.19;;;3.76;82.85
39699;BME280;25372;50.582;12.250;2024-01-25T22:15:32;100731.69;;;3.66;82.23
39699;BME280;25372;50.582;12.250;2024-01-25T22:25:54;100744.34;;;3.80;82.19
39699;BME280;25372;50.582;12.250;2024-01-25T22:36:15;100735.88;;;3.72;81.21
39699;BME280;25372;50.582;12.250;2024-01-25T22:46:38;100742.97;;;3.65;82.33
39699;BME280;25372;50.582;12.250;2024-01-25T22:56:59;100746.56;;;3.58;80.95
39699;BME280;25372;50.582;12.250;2024-01-25T23:07:22;100744.88;;;3.55;81.30
39699;BME280;25372;50.582;12.250;2024-01-25T23:17:45;100736.31;;;3.50;80.97
39699;BME280;25372;50.582;12.250;2024-01-25T23:28:07;100726.94;;;3.43;80.78
39699;BME280;25372;50.582;12.250;2024-01-25T23:38:28;100718.19;;;3.47;80.70
39699;BME280;25372;50.582;12.250;2024-01-25T23:48:51;100707.88;;;3.44;80.75
39699;BME280;25372;50.582;12.250;2024-01-25T23:59:12;100723.63;;;3.34;80.59
